createdAt,value
2022-08-31T00:00:31.413Z,1.95
2022-08-31T00:03:26.565Z,2.17
2022-08-31T00:05:57.741Z,1.67
2022-08-31T00:08:28.404Z,2.40
2022-08-31T00:10:56.650Z,1.40
2022-08-31T00:13:28.035Z,1.60
2022-08-31T00:15:58.493Z,1.67
2022-08-31T00:18:27.126Z,1.90
2022-08-31T00:20:55.307Z,1.83
2022-08-31T00:23:23.877Z,2.55
2022-08-31T00:25:53.509Z,2.00
2022-08-31T00:28:21.717Z,1.50
2022-08-31T00:30:50.494Z,2.17
2022-08-31T00:33:18.776Z,2.15
2022-08-31T00:35:47.401Z,2.40
2022-08-31T00:38:16.212Z,1.80
2022-08-31T00:40:47.148Z,1.90
2022-08-31T00:43:39.611Z,1.23
2022-08-31T00:46:10.310Z,1.60
2022-08-31T00:48:43.840Z,1.80
2022-08-31T00:51:13.109Z,2.05
2022-08-31T00:53:48.077Z,2.15
2022-08-31T00:56:20.181Z,1.88
2022-08-31T00:58:54.876Z,1.95
2022-08-31T01:01:24.350Z,2.22
2022-08-31T01:03:52.849Z,1.90
2022-08-31T01:06:21.917Z,1.38
2022-08-31T01:08:52.531Z,2.53
2022-08-31T01:11:22.341Z,1.98
2022-08-31T01:13:52.550Z,2.75
2022-08-31T01:16:25.414Z,1.67
2022-08-31T01:18:55.267Z,2.38
2022-08-31T01:21:29.210Z,2.00
2022-08-31T01:24:02.021Z,1.90
2022-08-31T01:26:32.543Z,2.05
2022-08-31T01:29:04.895Z,2.40
2022-08-31T01:31:36.894Z,2.42
2022-08-31T01:34:06.107Z,2.10
2022-08-31T01:36:36.741Z,2.50
2022-08-31T01:39:08.652Z,2.08
2022-08-31T01:41:41.279Z,1.60
2022-08-31T01:44:10.249Z,1.75
2022-08-31T01:46:39.311Z,2.20
2022-08-31T01:49:07.898Z,2.00
2022-08-31T01:51:36.136Z,2.72
2022-08-31T01:54:06.949Z,1.85
2022-08-31T01:56:37.722Z,2.50
2022-08-31T01:59:11.047Z,2.60
2022-08-31T02:01:58.079Z,2.20
2022-08-31T02:04:29.085Z,2.70
2022-08-31T02:06:59.781Z,2.17
2022-08-31T02:09:32.360Z,2.30
2022-08-31T02:12:00.675Z,2.60
2022-08-31T02:14:29.068Z,1.80
2022-08-31T02:16:58.071Z,1.80
2022-08-31T02:19:26.476Z,2.83
2022-08-31T02:21:57.290Z,2.03
2022-08-31T02:24:25.660Z,2.17
2022-08-31T02:26:58.356Z,2.50
2022-08-31T02:29:28.055Z,2.20
2022-08-31T02:31:56.987Z,1.75
2022-08-31T02:34:25.334Z,2.25
2022-08-31T02:36:54.599Z,2.25
2022-08-31T02:39:23.510Z,2.65
2022-08-31T02:41:52.191Z,2.30
2022-08-31T02:44:22.419Z,2.45
2022-08-31T02:46:50.705Z,2.00
2022-08-31T02:49:34.748Z,2.60
2022-08-31T02:52:03.031Z,2.28
2022-08-31T02:54:31.416Z,2.78
2022-08-31T02:57:00.688Z,2.90
2022-08-31T02:59:30.253Z,2.67
2022-08-31T03:01:59.445Z,2.60
2022-08-31T03:04:28.416Z,3.05
2022-08-31T03:06:56.642Z,3.30
2022-08-31T03:09:24.888Z,3.08
2022-08-31T03:11:53.300Z,2.85
2022-08-31T03:14:22.062Z,2.60
2022-08-31T03:16:54.551Z,3.03
2022-08-31T03:19:23.142Z,2.65
2022-08-31T03:21:55.787Z,2.22
2022-08-31T03:24:27.261Z,3.00
2022-08-31T03:26:56.539Z,3.00
2022-08-31T03:29:24.888Z,2.22
2022-08-31T03:31:57.510Z,2.78
2022-08-31T03:34:27.264Z,3.20
2022-08-31T03:36:55.493Z,2.97
2022-08-31T03:39:24.115Z,2.25
2022-08-31T03:41:53.526Z,2.67
2022-08-31T03:44:23.549Z,2.63
2022-08-31T03:46:54.964Z,2.92
2022-08-31T03:49:26.146Z,3.05
2022-08-31T03:52:10.729Z,2.25
2022-08-31T03:54:46.128Z,2.60
2022-08-31T03:57:14.900Z,2.30
2022-08-31T03:59:44.357Z,3.05
2022-08-31T04:02:37.489Z,2.40
2022-08-31T04:05:22.252Z,3.15
2022-08-31T04:08:09.464Z,3.25
2022-08-31T04:10:49.281Z,3.00
2022-08-31T04:13:36.076Z,2.65
2022-08-31T04:16:21.390Z,3.25
2022-08-31T04:19:28.604Z,2.78
2022-08-31T04:22:07.145Z,2.47
2022-08-31T04:24:40.696Z,2.55
2022-08-31T04:27:08.987Z,2.67
2022-08-31T04:29:37.557Z,3.10
2022-08-31T04:32:06.236Z,3.08
2022-08-31T04:34:34.436Z,3.60
2022-08-31T04:37:02.886Z,3.65
2022-08-31T04:39:34.779Z,3.72
2022-08-31T04:42:18.611Z,3.40
2022-08-31T04:44:47.368Z,4.07
2022-08-31T04:47:15.596Z,3.53
2022-08-31T04:49:45.433Z,3.40
2022-08-31T04:52:13.994Z,3.63
2022-08-31T04:54:43.575Z,3.55
2022-08-31T04:57:12.012Z,3.25
2022-08-31T04:59:40.476Z,3.53
2022-08-31T05:02:38.460Z,2.55
2022-08-31T05:05:14.263Z,3.10
2022-08-31T05:07:44.468Z,2.65
2022-08-31T05:10:15.257Z,3.80
2022-08-31T05:12:45.306Z,3.85
2022-08-31T05:15:14.385Z,4.25
2022-08-31T05:17:42.816Z,4.28
2022-08-31T05:20:11.747Z,3.60
2022-08-31T05:22:40.029Z,3.60
2022-08-31T05:25:09.440Z,3.38
2022-08-31T05:27:39.694Z,2.83
2022-08-31T05:30:08.778Z,3.00
2022-08-31T05:32:46.334Z,3.35
2022-08-31T05:35:16.111Z,3.08
2022-08-31T05:37:46.318Z,2.90
2022-08-31T05:40:15.323Z,3.95
2022-08-31T05:42:44.972Z,2.78
2022-08-31T05:45:13.325Z,2.83
2022-08-31T05:47:44.041Z,4.40
2022-08-31T05:50:12.586Z,4.05
2022-08-31T05:52:43.394Z,3.63
2022-08-31T05:55:12.562Z,5.30
2022-08-31T05:57:42.102Z,3.70
2022-08-31T06:00:13.013Z,3.45
2022-08-31T06:02:42.260Z,3.08
2022-08-31T06:05:13.096Z,2.70
2022-08-31T06:07:42.881Z,2.72
2022-08-31T06:10:15.612Z,3.10
2022-08-31T06:12:47.375Z,2.80
2022-08-31T06:15:17.717Z,2.72
2022-08-31T06:17:46.010Z,3.60
2022-08-31T06:20:17.808Z,2.03
2022-08-31T06:22:48.159Z,2.72
2022-08-31T06:25:28.053Z,2.63
2022-08-31T06:27:56.726Z,2.58
2022-08-31T06:30:27.515Z,3.38
2022-08-31T06:32:58.786Z,3.00
2022-08-31T06:35:32.955Z,2.75
2022-08-31T06:38:23.945Z,3.00
2022-08-31T06:41:17.320Z,3.08
2022-08-31T06:44:08.535Z,2.67
2022-08-31T06:46:49.575Z,3.17
2022-08-31T06:49:24.730Z,2.65
2022-08-31T06:51:53.378Z,2.90
2022-08-31T06:54:30.272Z,2.67
2022-08-31T06:57:31.204Z,2.95
2022-08-31T07:00:38.337Z,2.75
2022-08-31T07:03:33.199Z,1.85
2022-08-31T07:06:07.439Z,2.22
2022-08-31T07:08:36.944Z,2.72
2022-08-31T07:11:06.263Z,3.88
2022-08-31T07:13:34.695Z,2.53
2022-08-31T07:16:05.749Z,2.83
2022-08-31T07:18:35.584Z,3.08
2022-08-31T07:21:09.465Z,2.50
2022-08-31T07:23:38.693Z,3.10
2022-08-31T07:26:16.153Z,2.35
2022-08-31T07:28:45.214Z,2.20
2022-08-31T07:31:17.575Z,2.65
2022-08-31T07:33:48.193Z,2.75
2022-08-31T07:36:17.466Z,1.88
2022-08-31T07:39:19.228Z,1.90
2022-08-31T07:42:06.738Z,2.65
2022-08-31T07:44:35.267Z,2.00
2022-08-31T07:47:06.130Z,1.80
2022-08-31T07:49:37.911Z,2.20
2022-08-31T07:52:16.218Z,1.58
2022-08-31T07:55:06.508Z,1.88
2022-08-31T07:57:56.059Z,3.03
2022-08-31T08:00:26.716Z,2.33
2022-08-31T08:02:55.366Z,2.05
2022-08-31T08:05:38.599Z,1.77
2022-08-31T08:08:34.524Z,2.38
2022-08-31T08:11:37.555Z,9.07
2022-08-31T08:14:30.294Z,1.92
2022-08-31T08:17:14.697Z,2.22
2022-08-31T08:19:51.753Z,2.08
2022-08-31T08:22:41.632Z,2.20
2022-08-31T08:25:29.930Z,1.88
2022-08-31T08:28:29.103Z,1.73
2022-08-31T08:31:01.486Z,1.70
2022-08-31T08:33:33.954Z,1.90
2022-08-31T08:36:07.650Z,2.10
2022-08-31T08:38:41.445Z,2.17
2022-08-31T08:41:14.466Z,2.05
2022-08-31T08:43:50.045Z,1.85
2022-08-31T08:46:37.650Z,3.15
2022-08-31T08:49:17.981Z,5.90
2022-08-31T08:51:49.125Z,2.00
2022-08-31T08:54:29.792Z,1.80
2022-08-31T08:56:59.648Z,1.95
2022-08-31T08:59:31.253Z,1.60
2022-08-31T09:02:05.025Z,2.00
2022-08-31T09:04:50.808Z,1.67
2022-08-31T09:07:47.232Z,1.90
2022-08-31T09:10:26.727Z,1.60
2022-08-31T09:13:03.849Z,1.77
2022-08-31T09:15:55.872Z,1.58
2022-08-31T09:18:43.172Z,2.13
2022-08-31T09:21:22.059Z,1.65
2022-08-31T09:23:59.578Z,1.60
2022-08-31T09:26:35.741Z,1.63
2022-08-31T09:29:14.058Z,1.70
2022-08-31T09:31:46.521Z,1.45
2022-08-31T09:34:29.639Z,1.45
2022-08-31T09:37:16.197Z,1.52
2022-08-31T09:39:47.567Z,1.90
2022-08-31T09:42:31.092Z,1.10
2022-08-31T09:45:03.867Z,2.08
2022-08-31T09:47:42.156Z,1.40
2022-08-31T09:50:11.116Z,1.20
2022-08-31T09:52:59.507Z,1.92
2022-08-31T09:55:28.441Z,1.45
2022-08-31T09:58:01.337Z,2.00
2022-08-31T10:00:36.323Z,1.65
2022-08-31T10:03:09.756Z,1.60
2022-08-31T10:05:42.542Z,1.10
2022-08-31T10:08:39.201Z,1.90
2022-08-31T10:11:14.750Z,1.23
2022-08-31T10:13:54.875Z,1.58
2022-08-31T10:16:30.387Z,2.22
2022-08-31T10:19:04.109Z,1.60
2022-08-31T10:21:44.019Z,1.38
2022-08-31T10:24:21.858Z,1.60
2022-08-31T10:26:57.137Z,2.25
2022-08-31T10:29:34.386Z,2.10
2022-08-31T10:32:19.101Z,2.05
2022-08-31T10:35:06.029Z,1.85
2022-08-31T10:37:43.812Z,1.48
2022-08-31T10:40:19.713Z,1.50
2022-08-31T10:42:59.392Z,1.25
2022-08-31T10:45:32.990Z,1.23
2022-08-31T10:48:05.090Z,1.27
2022-08-31T10:50:40.594Z,1.45
2022-08-31T10:53:22.468Z,1.17
2022-08-31T10:55:59.989Z,1.52
2022-08-31T10:58:40.030Z,1.75
2022-08-31T11:01:19.013Z,2.47
2022-08-31T11:04:13.745Z,1.73
2022-08-31T11:06:47.120Z,1.83
2022-08-31T11:09:20.334Z,2.13
2022-08-31T11:11:58.241Z,3.60
2022-08-31T11:14:50.177Z,1.98
2022-08-31T11:17:32.268Z,1.90
2022-08-31T11:20:22.447Z,1.98
2022-08-31T11:23:11.903Z,1.40
2022-08-31T11:26:24.198Z,1.70
2022-08-31T11:28:58.829Z,1.95
2022-08-31T11:31:31.769Z,1.63
2022-08-31T11:34:16.973Z,1.92
2022-08-31T11:36:50.515Z,1.38
2022-08-31T11:39:38.332Z,1.27
2022-08-31T11:42:12.590Z,2.00
2022-08-31T11:45:05.588Z,1.45
2022-08-31T11:47:37.311Z,1.60
2022-08-31T11:50:13.103Z,1.88
2022-08-31T11:52:48.551Z,1.13
2022-08-31T11:55:24.031Z,1.42
2022-08-31T11:58:26.006Z,2.00
2022-08-31T12:01:03.574Z,2.30
2022-08-31T12:03:53.938Z,1.20
2022-08-31T12:07:08.617Z,1.85
2022-08-31T12:10:02.524Z,1.13
2022-08-31T12:13:18.776Z,1.33
2022-08-31T12:16:19.253Z,2.00
2022-08-31T12:19:00.470Z,1.27
2022-08-31T12:22:00.102Z,2.33
2022-08-31T12:24:37.890Z,2.58
2022-08-31T12:27:30.065Z,1.67
2022-08-31T12:30:16.452Z,1.73
2022-08-31T12:32:46.879Z,1.60
2022-08-31T12:35:19.326Z,1.75
2022-08-31T12:37:59.064Z,1.23
2022-08-31T12:40:29.438Z,1.80
2022-08-31T12:43:15.551Z,1.10
2022-08-31T12:46:25.677Z,1.63
2022-08-31T12:49:28.111Z,1.88
2022-08-31T12:52:06.938Z,2.13
2022-08-31T12:55:09.028Z,1.10
2022-08-31T12:57:52.898Z,1.75
2022-08-31T13:00:26.285Z,2.38
2022-08-31T13:02:58.710Z,1.70
2022-08-31T13:05:29.017Z,1.30
2022-08-31T13:07:58.258Z,1.23
2022-08-31T13:10:30.127Z,1.67
2022-08-31T13:13:00.587Z,1.50
2022-08-31T13:15:39.134Z,1.40
2022-08-31T13:18:12.642Z,1.70
2022-08-31T13:20:43.435Z,1.50
2022-08-31T13:23:14.726Z,1.77
2022-08-31T13:25:48.382Z,1.20
2022-08-31T13:28:30.150Z,1.27
2022-08-31T13:31:03.468Z,1.33
2022-08-31T13:33:34.947Z,0.85
2022-08-31T13:36:09.635Z,1.85
2022-08-31T13:38:47.529Z,0.88
2022-08-31T13:41:23.692Z,1.38
2022-08-31T13:43:58.811Z,0.98
2022-08-31T13:46:42.368Z,1.20
2022-08-31T13:49:32.234Z,1.50
2022-08-31T13:52:01.174Z,1.25
2022-08-31T13:54:32.411Z,1.25
2022-08-31T13:57:20.579Z,1.00
2022-08-31T13:59:49.881Z,1.10
2022-08-31T14:02:37.166Z,1.63
2022-08-31T14:05:10.001Z,1.48
2022-08-31T14:07:57.603Z,1.20
2022-08-31T14:10:28.651Z,2.13
2022-08-31T14:13:00.259Z,1.77
2022-08-31T14:15:38.316Z,3.00
2022-08-31T14:18:24.880Z,1.75
2022-08-31T14:21:21.957Z,2.20
2022-08-31T14:23:53.221Z,1.60
2022-08-31T14:26:26.334Z,2.42
2022-08-31T14:28:56.918Z,1.58
2022-08-31T14:31:29.003Z,1.50
2022-08-31T14:34:24.419Z,1.30
2022-08-31T14:36:57.644Z,1.58
2022-08-31T14:39:30.999Z,1.65
2022-08-31T14:42:01.788Z,1.55
2022-08-31T14:44:32.920Z,1.27
2022-08-31T14:47:01.871Z,3.30
2022-08-31T14:49:36.429Z,1.92
2022-08-31T14:52:07.006Z,1.90
2022-08-31T14:54:37.318Z,1.52
2022-08-31T14:57:11.590Z,2.97
2022-08-31T14:59:43.444Z,2.72
2022-08-31T15:02:16.430Z,2.60
2022-08-31T15:04:46.251Z,2.58
2022-08-31T15:07:15.972Z,2.30
2022-08-31T15:09:46.845Z,1.30
2022-08-31T15:12:16.545Z,2.50
2022-08-31T15:14:47.225Z,1.20
2022-08-31T15:17:19.778Z,1.58
2022-08-31T15:19:55.838Z,1.63
2022-08-31T15:22:25.661Z,3.63
2022-08-31T15:24:55.171Z,3.28
2022-08-31T15:27:27.056Z,4.07
2022-08-31T15:30:01.331Z,3.13
2022-08-31T15:32:29.511Z,2.72
2022-08-31T15:35:00.186Z,4.40
2022-08-31T15:37:31.646Z,1.50
2022-08-31T15:40:01.878Z,2.13
2022-08-31T15:42:36.696Z,1.23
2022-08-31T15:45:05.813Z,1.10
2022-08-31T15:47:55.551Z,1.50
2022-08-31T15:50:31.669Z,1.45
2022-08-31T15:53:08.287Z,1.75
2022-08-31T15:55:40.432Z,1.63
2022-08-31T15:58:10.392Z,1.90
2022-08-31T16:00:41.981Z,1.50
2022-08-31T16:03:10.605Z,0.80
2022-08-31T16:05:40.306Z,1.70
2022-08-31T16:08:11.129Z,1.08
2022-08-31T16:10:43.705Z,1.85
2022-08-31T16:13:12.326Z,3.67
2022-08-31T16:15:40.640Z,3.28
2022-08-31T16:18:11.234Z,4.03
2022-08-31T16:20:46.845Z,14.15
2022-08-31T16:23:15.192Z,21.23
2022-08-31T16:25:48.492Z,14.35
2022-08-31T16:28:19.912Z,2.65
2022-08-31T16:30:51.255Z,1.55
2022-08-31T16:33:20.006Z,1.90
2022-08-31T16:35:49.710Z,1.75
2022-08-31T16:38:20.523Z,2.03
2022-08-31T16:40:48.962Z,1.98
2022-08-31T16:43:17.329Z,1.60
2022-08-31T16:45:45.869Z,1.85
2022-08-31T16:48:31.799Z,1.40
2022-08-31T16:51:01.965Z,1.92
2022-08-31T16:53:30.795Z,1.63
2022-08-31T16:55:59.965Z,1.50
2022-08-31T16:58:50.633Z,1.42
2022-08-31T17:01:19.831Z,1.50
2022-08-31T17:03:50.566Z,1.40
2022-08-31T17:06:20.351Z,1.70
2022-08-31T17:08:48.588Z,3.50
2022-08-31T17:11:22.483Z,7.45
2022-08-31T17:13:53.605Z,2.42
2022-08-31T17:16:22.333Z,3.45
2022-08-31T17:18:52.548Z,4.40
2022-08-31T17:21:27.002Z,1.95
2022-08-31T17:24:00.150Z,1.63
2022-08-31T17:26:31.594Z,1.75
2022-08-31T17:29:02.376Z,2.78
2022-08-31T17:31:33.638Z,1.95
2022-08-31T17:34:02.737Z,1.88
2022-08-31T17:36:37.381Z,3.80
2022-08-31T17:39:07.168Z,3.22
2022-08-31T17:41:35.981Z,6.40
2022-08-31T17:44:05.161Z,8.15
2022-08-31T17:46:34.008Z,2.60
2022-08-31T17:49:02.338Z,3.60
2022-08-31T17:51:35.412Z,3.15
2022-08-31T17:54:06.487Z,2.42
2022-08-31T17:56:38.001Z,3.33
2022-08-31T17:59:06.478Z,10.85
2022-08-31T18:01:36.603Z,8.30
2022-08-31T18:04:05.910Z,4.13
2022-08-31T18:06:35.977Z,3.53
2022-08-31T18:09:04.932Z,2.22
2022-08-31T18:11:33.705Z,4.75
2022-08-31T18:14:02.105Z,4.82
2022-08-31T18:16:30.397Z,2.65
2022-08-31T18:18:58.701Z,2.78
2022-08-31T18:21:27.048Z,2.30
2022-08-31T18:23:56.638Z,3.13
2022-08-31T18:26:27.325Z,1.98
2022-08-31T18:28:57.133Z,2.28
2022-08-31T18:31:30.719Z,1.65
2022-08-31T18:34:00.189Z,2.05
2022-08-31T18:36:29.266Z,2.15
2022-08-31T18:39:00.607Z,1.52
2022-08-31T18:41:47.840Z,3.42
2022-08-31T18:44:33.665Z,5.70
2022-08-31T18:47:05.888Z,5.40
2022-08-31T18:49:39.023Z,3.22
2022-08-31T18:52:09.374Z,1.90
2022-08-31T18:54:38.937Z,2.38
2022-08-31T18:57:07.393Z,1.90
2022-08-31T18:59:35.971Z,1.40
2022-08-31T19:02:05.388Z,1.92
2022-08-31T19:04:35.283Z,6.82
2022-08-31T19:07:04.103Z,6.10
2022-08-31T19:09:33.493Z,2.85
2022-08-31T19:12:04.522Z,2.65
2022-08-31T19:14:35.828Z,2.22
2022-08-31T19:17:05.684Z,2.85
2022-08-31T19:19:34.374Z,2.70
2022-08-31T19:22:02.620Z,2.55
2022-08-31T19:24:30.981Z,2.72
2022-08-31T19:27:01.082Z,2.03
2022-08-31T19:29:32.400Z,2.38
2022-08-31T19:32:03.530Z,2.17
2022-08-31T19:34:34.450Z,2.85
2022-08-31T19:37:03.513Z,1.58
2022-08-31T19:39:37.206Z,2.13
2022-08-31T19:42:07.875Z,1.77
2022-08-31T19:44:54.994Z,1.95
2022-08-31T19:47:26.916Z,1.88
2022-08-31T19:49:55.626Z,5.95
2022-08-31T19:52:25.766Z,7.95
2022-08-31T19:54:54.625Z,5.88
2022-08-31T19:57:23.138Z,3.40
2022-08-31T19:59:52.991Z,3.20
2022-08-31T20:02:21.909Z,2.90
2022-08-31T20:04:50.606Z,2.60
2022-08-31T20:07:20.124Z,2.78
2022-08-31T20:09:48.707Z,1.98
2022-08-31T20:12:18.817Z,1.65
2022-08-31T20:14:47.393Z,5.05
2022-08-31T20:17:17.329Z,10.20
2022-08-31T20:19:48.891Z,8.45
2022-08-31T20:22:17.894Z,4.28
2022-08-31T20:24:46.133Z,2.80
2022-08-31T20:27:18.570Z,2.55
2022-08-31T20:29:48.322Z,2.72
2022-08-31T20:32:17.932Z,2.75
2022-08-31T20:34:46.448Z,2.25
2022-08-31T20:37:15.901Z,3.03
2022-08-31T20:39:44.244Z,2.22
2022-08-31T20:42:12.776Z,1.65
2022-08-31T20:44:43.461Z,2.33
2022-08-31T20:47:36.277Z,2.22
2022-08-31T20:50:11.373Z,2.53
2022-08-31T20:52:40.288Z,1.80
2022-08-31T20:55:12.454Z,1.95
2022-08-31T20:57:41.200Z,2.30
2022-08-31T21:00:11.388Z,2.00
2022-08-31T21:02:41.172Z,2.30
2022-08-31T21:05:37.461Z,2.50
2022-08-31T21:07:59.995Z,1.73
2022-08-31T21:10:36.322Z,2.13
2022-08-31T21:13:07.133Z,2.42
2022-08-31T21:15:35.711Z,2.28
2022-08-31T21:18:05.833Z,3.17
2022-08-31T21:20:35.464Z,1.83
2022-08-31T21:23:03.900Z,2.35
2022-08-31T21:25:32.135Z,3.15
2022-08-31T21:28:02.199Z,2.80
2022-08-31T21:30:30.588Z,2.13
2022-08-31T21:32:58.962Z,3.05
2022-08-31T21:35:28.751Z,2.25
2022-08-31T21:37:58.939Z,2.40
2022-08-31T21:40:28.525Z,2.42
2022-08-31T21:42:57.914Z,2.25
2022-08-31T21:45:26.655Z,2.25
2022-08-31T21:47:54.931Z,2.17
2022-08-31T21:50:23.333Z,2.33
2022-08-31T21:52:59.620Z,2.33
2022-08-31T21:55:28.906Z,2.78
2022-08-31T21:57:57.179Z,2.85
2022-08-31T22:00:29.462Z,2.20
2022-08-31T22:02:58.490Z,3.00
2022-08-31T22:05:33.042Z,2.05
2022-08-31T22:08:03.400Z,2.40
2022-08-31T22:10:32.574Z,2.30
2022-08-31T22:13:03.288Z,2.22
2022-08-31T22:15:34.670Z,2.47
2022-08-31T22:18:35.295Z,2.60
2022-08-31T22:20:54.166Z,3.28
2022-08-31T22:23:23.778Z,2.53
2022-08-31T22:25:52.092Z,2.30
2022-08-31T22:28:22.640Z,4.00
2022-08-31T22:30:51.121Z,5.30
2022-08-31T22:33:20.541Z,4.50
2022-08-31T22:35:49.304Z,4.57
2022-08-31T22:38:21.381Z,3.40
2022-08-31T22:40:53.481Z,3.60
2022-08-31T22:43:21.939Z,3.60
2022-08-31T22:45:50.437Z,3.22
2022-08-31T22:48:19.028Z,2.75
2022-08-31T22:50:47.493Z,3.30
2022-08-31T22:53:15.817Z,3.40
2022-08-31T22:55:44.406Z,3.70
2022-08-31T22:58:14.075Z,3.17
2022-08-31T23:00:48.067Z,3.78
2022-08-31T23:03:16.789Z,2.97
2022-08-31T23:05:45.297Z,2.95
2022-08-31T23:08:14.839Z,5.70
2022-08-31T23:10:44.557Z,7.97
2022-08-31T23:13:14.152Z,5.90
2022-08-31T23:15:43.597Z,5.93
2022-08-31T23:18:13.455Z,5.47
2022-08-31T23:20:42.032Z,4.28
2022-08-31T23:23:25.562Z,4.13
2022-08-31T23:25:55.245Z,3.35
2022-08-31T23:28:24.970Z,4.90
2022-08-31T23:30:53.233Z,2.33
2022-08-31T23:33:22.484Z,1.98
2022-08-31T23:35:55.798Z,2.58
2022-08-31T23:38:27.307Z,2.33
2022-08-31T23:40:57.161Z,1.98
2022-08-31T23:43:27.150Z,2.33
2022-08-31T23:46:00.731Z,1.92
2022-08-31T23:48:29.528Z,2.00
2022-08-31T23:50:57.861Z,2.40
2022-08-31T23:53:28.037Z,1.70
2022-08-31T23:55:56.496Z,2.20
2022-08-31T23:58:26.946Z,2.85
